sensor_id;sensor_type;location;lat;lon;timestamp;temperature;humidity
51567;DHT22;37657;53.182;5.638;2023-05-10T00:01:56;13.90;99.90
51567;DHT22;37657;53.182;5.638;2023-05-10T00:04:21;14.00;99.90
51567;DHT22;37657;53.182;5.638;2023-05-10T00:06:47;13.70;99.90
51567;DHT22;37657;53.182;5.638;2023-05-10T00:09:13;14.00;99.90
51567;DHT22;37657;53.182;5.638;2023-05-10T00:11:39;13.90;99.90
51567;DHT22;37657;53.182;5.638;2023-05-10T00:14:04;13.70;99.90
51567;DHT22;37657;53.182;5.638;2023-05-10T00:16:30;13.70;99.90
51567;DHT22;37657;53.182;5.638;2023-05-10T00:18:55;13.70;99.90
51567;DHT22;37657;53.182;5.638;2023-05-10T00:21:21;13.70;99.90
51567;DHT22;37657;53.182;5.638;2023-05-10T00:23:47;13.60;99.90
51567;DHT22;37657;53.182;5.638;2023-05-10T00:26:12;13.40;99.90
51567;DHT22;37657;53.182;5.638;2023-05-10T00:28:38;13.50;99.90
51567;DHT22;37657;53.182;5.638;2023-05-10T00:31:03;13.10;99.90
51567;DHT22;37657;53.182;5.638;2023-05-10T00:33:29;12.90;99.90
51567;DHT22;37657;53.182;5.638;2023-05-10T00:35:54;12.90;99.90
51567;DHT22;37657;53.182;5.638;2023-05-10T00:38:20;13.10;99.90
51567;DHT22;37657;53.182;5.638;2023-05-10T00:40:46;12.90;99.90
51567;DHT22;37657;53.182;5.638;2023-05-10T00:43:11;12.70;99.90
51567;DHT22;37657;53.182;5.638;2023-05-10T00:45:37;12.70;99.90
51567;DHT22;37657;53.182;5.638;2023-05-10T00:48:05;12.90;99.90
51567;DHT22;37657;53.182;5.638;2023-05-10T00:50:31;12.80;99.90
51567;DHT22;37657;53.182;5.638;2023-05-10T00:52:59;12.50;99.90
51567;DHT22;37657;53.182;5.638;2023-05-10T00:55:25;12.80;99.90
51567;DHT22;37657;53.182;5.638;2023-05-10T00:57:50;12.50;99.90
51567;DHT22;37657;53.182;5.638;2023-05-10T01:00:17;12.70;99.90
51567;DHT22;37657;53.182;5.638;2023-05-10T01:02:46;12.30;99.90
51567;DHT22;37657;53.182;5.638;2023-05-10T01:05:13;12.40;99.90
51567;DHT22;37657;53.182;5.638;2023-05-10T01:07:39;12.30;99.90
51567;DHT22;37657;53.182;5.638;2023-05-10T01:10:06;12.50;99.90
51567;DHT22;37657;53.182;5.638;2023-05-10T01:12:32;12.30;99.90
51567;DHT22;37657;53.182;5.638;2023-05-10T01:14:58;12.10;99.90
51567;DHT22;37657;53.182;5.638;2023-05-10T01:17:25;12.10;99.90
51567;DHT22;37657;53.182;5.638;2023-05-10T01:19:51;12.20;99.90
51567;DHT22;37657;53.182;5.638;2023-05-10T01:22:51;12.60;99.90
51567;DHT22;37657;53.182;5.638;2023-05-10T01:25:39;12.70;99.90
51567;DHT22;37657;53.182;5.638;2023-05-10T01:31:23;12.20;99.90
51567;DHT22;37657;53.182;5.638;2023-05-10T01:34:03;12.70;99.90
51567;DHT22;37657;53.182;5.638;2023-05-10T01:36:53;12.10;99.90
51567;DHT22;37657;53.182;5.638;2023-05-10T01:39:22;12.80;99.90
51567;DHT22;37657;53.182;5.638;2023-05-10T01:41:52;12.80;99.90
51567;DHT22;37657;53.182;5.638;2023-05-10T01:44:31;12.20;99.90
51567;DHT22;37657;53.182;5.638;2023-05-10T01:47:10;12.10;99.90
51567;DHT22;37657;53.182;5.638;2023-05-10T01:49:43;12.70;99.90
51567;DHT22;37657;53.182;5.638;2023-05-10T01:52:14;12.10;99.90
51567;DHT22;37657;53.182;5.638;2023-05-10T01:54:53;12.50;99.90
51567;DHT22;37657;53.182;5.638;2023-05-10T01:57:20;12.40;99.90
51567;DHT22;37657;53.182;5.638;2023-05-10T01:59:50;12.00;99.90
51567;DHT22;37657;53.182;5.638;2023-05-10T02:02:18;12.50;99.90
51567;DHT22;37657;53.182;5.638;2023-05-10T02:04:46;12.60;99.90
51567;DHT22;37657;53.182;5.638;2023-05-10T02:07:13;11.90;99.90
51567;DHT22;37657;53.182;5.638;2023-05-10T02:09:40;12.20;99.90
51567;DHT22;37657;53.182;5.638;2023-05-10T02:12:07;12.50;99.90
51567;DHT22;37657;53.182;5.638;2023-05-10T02:14:35;12.70;99.90
51567;DHT22;37657;53.182;5.638;2023-05-10T02:17:04;12.60;99.90
51567;DHT22;37657;53.182;5.638;2023-05-10T02:19:32;12.70;99.90
51567;DHT22;37657;53.182;5.638;2023-05-10T02:21:59;11.90;99.90
51567;DHT22;37657;53.182;5.638;2023-05-10T02:24:27;12.00;99.90
51567;DHT22;37657;53.182;5.638;2023-05-10T02:26:54;12.00;99.90
51567;DHT22;37657;53.182;5.638;2023-05-10T02:29:23;12.70;99.90
51567;DHT22;37657;53.182;5.638;2023-05-10T02:31:51;12.00;99.90
51567;DHT22;37657;53.182;5.638;2023-05-10T02:34:17;12.70;99.90
51567;DHT22;37657;53.182;5.638;2023-05-10T02:36:44;12.80;99.90
51567;DHT22;37657;53.182;5.638;2023-05-10T02:39:11;12.80;99.90
51567;DHT22;37657;53.182;5.638;2023-05-10T02:41:40;12.80;99.90
51567;DHT22;37657;53.182;5.638;2023-05-10T02:44:08;12.30;99.90
51567;DHT22;37657;53.182;5.638;2023-05-10T02:46:35;12.80;99.90
51567;DHT22;37657;53.182;5.638;2023-05-10T02:49:02;13.00;99.90
51567;DHT22;37657;53.182;5.638;2023-05-10T02:51:30;12.80;99.90
51567;DHT22;37657;53.182;5.638;2023-05-10T02:54:06;12.90;99.90
51567;DHT22;37657;53.182;5.638;2023-05-10T02:56:36;12.90;99.90
51567;DHT22;37657;53.182;5.638;2023-05-10T02:59:04;13.00;99.90
51567;DHT22;37657;53.182;5.638;2023-05-10T03:01:30;12.50;99.90
51567;DHT22;37657;53.182;5.638;2023-05-10T03:03:56;12.30;99.90
51567;DHT22;37657;53.182;5.638;2023-05-10T03:06:21;12.90;99.90
51567;DHT22;37657;53.182;5.638;2023-05-10T03:08:47;12.80;99.90
51567;DHT22;37657;53.182;5.638;2023-05-10T03:14:07;12.40;99.90
51567;DHT22;37657;53.182;5.638;2023-05-10T03:16:56;12.20;99.90
51567;DHT22;37657;53.182;5.638;2023-05-10T03:20:11;12.20;99.90
51567;DHT22;37657;53.182;5.638;2023-05-10T03:22:25;12.80;99.90
51567;DHT22;37657;53.182;5.638;2023-05-10T03:24:55;12.70;99.90
51567;DHT22;37657;53.182;5.638;2023-05-10T03:27:22;13.00;99.90
51567;DHT22;37657;53.182;5.638;2023-05-10T03:29:48;12.60;99.90
51567;DHT22;37657;53.182;5.638;2023-05-10T03:32:16;12.70;99.90
51567;DHT22;37657;53.182;5.638;2023-05-10T03:34:42;12.20;99.90
51567;DHT22;37657;53.182;5.638;2023-05-10T03:37:10;12.90;99.90
51567;DHT22;37657;53.182;5.638;2023-05-10T03:39:36;12.80;99.90
51567;DHT22;37657;53.182;5.638;2023-05-10T03:42:02;12.60;99.90
51567;DHT22;37657;53.182;5.638;2023-05-10T03:44:27;12.20;99.90
51567;DHT22;37657;53.182;5.638;2023-05-10T03:46:53;12.60;99.90
51567;DHT22;37657;53.182;5.638;2023-05-10T03:49:18;12.80;99.90
51567;DHT22;37657;53.182;5.638;2023-05-10T03:51:44;12.20;99.90
51567;DHT22;37657;53.182;5.638;2023-05-10T03:54:09;12.20;99.90
51567;DHT22;37657;53.182;5.638;2023-05-10T03:56:35;12.30;99.90
51567;DHT22;37657;53.182;5.638;2023-05-10T03:59:01;12.10;99.90
51567;DHT22;37657;53.182;5.638;2023-05-10T04:01:26;12.60;99.90
51567;DHT22;37657;53.182;5.638;2023-05-10T04:03:52;12.80;99.90
51567;DHT22;37657;53.182;5.638;2023-05-10T04:06:17;12.70;99.90
51567;DHT22;37657;53.182;5.638;2023-05-10T04:08:43;12.80;99.90
51567;DHT22;37657;53.182;5.638;2023-05-10T04:11:10;12.30;99.90
51567;DHT22;37657;53.182;5.638;2023-05-10T04:13:37;12.90;99.90
51567;DHT22;37657;53.182;5.638;2023-05-10T04:16:02;12.50;99.90
51567;DHT22;37657;53.182;5.638;2023-05-10T04:18:28;12.90;99.90
51567;DHT22;37657;53.182;5.638;2023-05-10T04:20:53;12.40;99.90
51567;DHT22;37657;53.182;5.638;2023-05-10T04:23:19;12.30;99.90
51567;DHT22;37657;53.182;5.638;2023-05-10T04:25:45;12.20;99.90
51567;DHT22;37657;53.182;5.638;2023-05-10T04:28:10;12.80;99.90
51567;DHT22;37657;53.182;5.638;2023-05-10T04:30:36;12.90;99.90
51567;DHT22;37657;53.182;5.638;2023-05-10T04:33:01;13.00;99.90
51567;DHT22;37657;53.182;5.638;2023-05-10T04:35:27;12.30;99.90
51567;DHT22;37657;53.182;5.638;2023-05-10T04:37:53;12.20;99.90
51567;DHT22;37657;53.182;5.638;2023-05-10T04:40:19;12.90;99.90
51567;DHT22;37657;53.182;5.638;2023-05-10T04:42:45;12.30;99.90
51567;DHT22;37657;53.182;5.638;2023-05-10T04:45:11;12.20;99.90
51567;DHT22;37657;53.182;5.638;2023-05-10T04:47:36;12.10;99.90
51567;DHT22;37657;53.182;5.638;2023-05-10T04:50:03;12.80;99.90
51567;DHT22;37657;53.182;5.638;2023-05-10T04:52:28;12.10;99.90
51567;DHT22;37657;53.182;5.638;2023-05-10T04:54:54;12.20;99.90
51567;DHT22;37657;53.182;5.638;2023-05-10T04:57:20;12.50;99.90
51567;DHT22;37657;53.182;5.638;2023-05-10T04:59:45;12.90;99.90
51567;DHT22;37657;53.182;5.638;2023-05-10T05:02:11;12.10;99.90
51567;DHT22;37657;53.182;5.638;2023-05-10T05:04:36;12.80;99.90
51567;DHT22;37657;53.182;5.638;2023-05-10T05:07:02;12.50;99.90
51567;DHT22;37657;53.182;5.638;2023-05-10T05:09:27;12.50;99.90
51567;DHT22;37657;53.182;5.638;2023-05-10T05:11:53;12.20;99.90
51567;DHT22;37657;53.182;5.638;2023-05-10T05:14:18;12.10;99.90
51567;DHT22;37657;53.182;5.638;2023-05-10T05:16:46;12.20;99.90
51567;DHT22;37657;53.182;5.638;2023-05-10T05:19:11;12.50;99.90
51567;DHT22;37657;53.182;5.638;2023-05-10T05:21:37;12.90;99.90
51567;DHT22;37657;53.182;5.638;2023-05-10T05:24:03;12.20;99.90
51567;DHT22;37657;53.182;5.638;2023-05-10T05:26:29;12.80;99.90
51567;DHT22;37657;53.182;5.638;2023-05-10T05:28:54;12.10;99.90
51567;DHT22;37657;53.182;5.638;2023-05-10T05:31:20;12.40;99.90
51567;DHT22;37657;53.182;5.638;2023-05-10T05:33:46;12.80;99.90
51567;DHT22;37657;53.182;5.638;2023-05-10T05:36:12;12.00;99.90
51567;DHT22;37657;53.182;5.638;2023-05-10T05:38:37;12.70;99.90
51567;DHT22;37657;53.182;5.638;2023-05-10T05:41:03;12.60;99.90
51567;DHT22;37657;53.182;5.638;2023-05-10T05:43:28;12.50;99.90
51567;DHT22;37657;53.182;5.638;2023-05-10T05:45:54;12.00;99.90
51567;DHT22;37657;53.182;5.638;2023-05-10T05:48:20;12.70;99.90
51567;DHT22;37657;53.182;5.638;2023-05-10T05:50:46;12.30;99.90
51567;DHT22;37657;53.182;5.638;2023-05-10T05:53:12;12.40;99.90
51567;DHT22;37657;53.182;5.638;2023-05-10T05:55:38;12.40;99.90
51567;DHT22;37657;53.182;5.638;2023-05-10T05:58:03;12.60;99.90
51567;DHT22;37657;53.182;5.638;2023-05-10T06:00:29;12.30;99.90
51567;DHT22;37657;53.182;5.638;2023-05-10T06:02:54;12.80;99.90
51567;DHT22;37657;53.182;5.638;2023-05-10T06:05:20;12.60;99.90
51567;DHT22;37657;53.182;5.638;2023-05-10T06:07:46;12.10;99.90
51567;DHT22;37657;53.182;5.638;2023-05-10T06:10:11;12.00;99.90
51567;DHT22;37657;53.182;5.638;2023-05-10T06:12:37;12.40;99.90
51567;DHT22;37657;53.182;5.638;2023-05-10T06:15:03;12.70;99.90
51567;DHT22;37657;53.182;5.638;2023-05-10T06:17:29;12.10;99.90
51567;DHT22;37657;53.182;5.638;2023-05-10T06:19:55;12.60;99.90
51567;DHT22;37657;53.182;5.638;2023-05-10T06:22:21;12.80;99.90
51567;DHT22;37657;53.182;5.638;2023-05-10T06:24:48;12.70;99.90
51567;DHT22;37657;53.182;5.638;2023-05-10T06:27:15;12.20;99.90
51567;DHT22;37657;53.182;5.638;2023-05-10T06:29:40;12.90;99.90
51567;DHT22;37657;53.182;5.638;2023-05-10T06:32:06;12.80;99.90
51567;DHT22;37657;53.182;5.638;2023-05-10T06:34:32;13.00;99.90
51567;DHT22;37657;53.182;5.638;2023-05-10T06:36:57;13.00;99.90
51567;DHT22;37657;53.182;5.638;2023-05-10T06:39:23;12.30;99.90
51567;DHT22;37657;53.182;5.638;2023-05-10T06:41:49;12.70;99.90
51567;DHT22;37657;53.182;5.638;2023-05-10T06:44:14;12.40;99.90
51567;DHT22;37657;53.182;5.638;2023-05-10T06:46:40;13.10;99.90
51567;DHT22;37657;53.182;5.638;2023-05-10T06:49:06;12.80;99.90
51567;DHT22;37657;53.182;5.638;2023-05-10T06:51:32;12.30;99.90
51567;DHT22;37657;53.182;5.638;2023-05-10T06:53:58;13.00;99.90
51567;DHT22;37657;53.182;5.638;2023-05-10T06:56:23;12.40;99.90
51567;DHT22;37657;53.182;5.638;2023-05-10T06:58:49;12.90;99.90
51567;DHT22;37657;53.182;5.638;2023-05-10T07:01:14;12.40;99.90
51567;DHT22;37657;53.182;5.638;2023-05-10T07:03:40;13.10;99.90
51567;DHT22;37657;53.182;5.638;2023-05-10T07:06:05;13.10;99.90
51567;DHT22;37657;53.182;5.638;2023-05-10T07:08:33;13.20;99.90
51567;DHT22;37657;53.182;5.638;2023-05-10T07:11:01;12.50;99.90
51567;DHT22;37657;53.182;5.638;2023-05-10T07:13:26;12.50;99.90
51567;DHT22;37657;53.182;5.638;2023-05-10T07:15:52;12.40;99.90
51567;DHT22;37657;53.182;5.638;2023-05-10T07:18:17;13.00;99.90
51567;DHT22;37657;53.182;5.638;2023-05-10T07:20:43;13.20;99.90
51567;DHT22;37657;53.182;5.638;2023-05-10T07:23:09;12.40;99.90
51567;DHT22;37657;53.182;5.638;2023-05-10T07:25:34;13.30;99.90
51567;DHT22;37657;53.182;5.638;2023-05-10T07:28:00;12.70;99.90
51567;DHT22;37657;53.182;5.638;2023-05-10T07:30:25;12.70;99.90
51567;DHT22;37657;53.182;5.638;2023-05-10T07:32:51;13.30;99.90
51567;DHT22;37657;53.182;5.638;2023-05-10T07:35:17;13.30;99.90
51567;DHT22;37657;53.182;5.638;2023-05-10T07:37:42;13.50;99.90
51567;DHT22;37657;53.182;5.638;2023-05-10T07:40:08;12.80;99.90
51567;DHT22;37657;53.182;5.638;2023-05-10T07:42:34;13.00;99.90
51567;DHT22;37657;53.182;5.638;2023-05-10T07:44:59;13.60;99.90
51567;DHT22;37657;53.182;5.638;2023-05-10T07:47:25;12.90;99.90
51567;DHT22;37657;53.182;5.638;2023-05-10T07:49:51;13.00;99.90
51567;DHT22;37657;53.182;5.638;2023-05-10T07:52:16;13.00;99.90
51567;DHT22;37657;53.182;5.638;2023-05-10T07:54:42;13.10;99.90
51567;DHT22;37657;53.182;5.638;2023-05-10T07:57:07;13.60;99.90
51567;DHT22;37657;53.182;5.638;2023-05-10T07:59:33;13.20;99.90
51567;DHT22;37657;53.182;5.638;2023-05-10T08:01:59;13.80;99.90
51567;DHT22;37657;53.182;5.638;2023-05-10T08:04:24;13.80;99.90
51567;DHT22;37657;53.182;5.638;2023-05-10T08:06:50;13.10;99.90
51567;DHT22;37657;53.182;5.638;2023-05-10T08:09:16;13.10;99.90
51567;DHT22;37657;53.182;5.638;2023-05-10T08:11:43;13.10;99.90
51567;DHT22;37657;53.182;5.638;2023-05-10T08:14:08;13.10;99.90
51567;DHT22;37657;53.182;5.638;2023-05-10T08:16:34;13.70;99.90
51567;DHT22;37657;53.182;5.638;2023-05-10T08:18:59;13.70;99.90
51567;DHT22;37657;53.182;5.638;2023-05-10T08:21:25;13.50;99.90
51567;DHT22;37657;53.182;5.638;2023-05-10T08:23:51;13.40;99.90
51567;DHT22;37657;53.182;5.638;2023-05-10T08:26:17;13.80;99.90
51567;DHT22;37657;53.182;5.638;2023-05-10T09:33:02;13.70;99.90
51567;DHT22;37657;53.182;5.638;2023-05-10T09:35:30;14.30;99.90
51567;DHT22;37657;53.182;5.638;2023-05-10T09:38:04;14.10;99.90
51567;DHT22;37657;53.182;5.638;2023-05-10T09:40:31;14.40;99.90
51567;DHT22;37657;53.182;5.638;2023-05-10T09:43:01;14.30;99.90
51567;DHT22;37657;53.182;5.638;2023-05-10T09:45:31;14.20;99.90
51567;DHT22;37657;53.182;5.638;2023-05-10T09:47:58;14.30;99.90
51567;DHT22;37657;53.182;5.638;2023-05-10T09:50:25;14.40;99.90
51567;DHT22;37657;53.182;5.638;2023-05-10T09:52:58;14.30;99.90
51567;DHT22;37657;53.182;5.638;2023-05-10T09:55:45;14.20;99.90
51567;DHT22;37657;53.182;5.638;2023-05-10T09:58:12;14.30;99.90
51567;DHT22;37657;53.182;5.638;2023-05-10T10:00:43;14.70;99.90
51567;DHT22;37657;53.182;5.638;2023-05-10T10:03:18;14.50;99.90
51567;DHT22;37657;53.182;5.638;2023-05-10T10:05:45;14.40;99.90
51567;DHT22;37657;53.182;5.638;2023-05-10T10:08:12;14.60;99.90
51567;DHT22;37657;53.182;5.638;2023-05-10T10:10:38;14.40;99.90
51567;DHT22;37657;53.182;5.638;2023-05-10T10:13:06;14.70;99.90
51567;DHT22;37657;53.182;5.638;2023-05-10T10:15:33;14.50;99.90
51567;DHT22;37657;53.182;5.638;2023-05-10T10:17:59;14.50;99.90
51567;DHT22;37657;53.182;5.638;2023-05-10T10:20:26;14.70;99.90
51567;DHT22;37657;53.182;5.638;2023-05-10T10:22:52;14.90;99.90
51567;DHT22;37657;53.182;5.638;2023-05-10T10:25:19;14.70;99.90
51567;DHT22;37657;53.182;5.638;2023-05-10T10:30:41;15.10;99.90
51567;DHT22;37657;53.182;5.638;2023-05-10T10:36:19;15.20;99.90
51567;DHT22;37657;53.182;5.638;2023-05-10T10:41:33;15.30;99.90
51567;DHT22;37657;53.182;5.638;2023-05-10T10:50:03;15.50;99.90
51567;DHT22;37657;53.182;5.638;2023-05-10T10:52:34;15.40;99.90
51567;DHT22;37657;53.182;5.638;2023-05-10T10:55:19;15.30;99.90
51567;DHT22;37657;53.182;5.638;2023-05-10T10:57:50;15.40;99.90
51567;DHT22;37657;53.182;5.638;2023-05-10T11:00:24;15.30;99.90
51567;DHT22;37657;53.182;5.638;2023-05-10T11:05:49;15.40;99.90
51567;DHT22;37657;53.182;5.638;2023-05-10T11:11:03;15.40;99.90
51567;DHT22;37657;53.182;5.638;2023-05-10T11:13:33;15.40;99.90
51567;DHT22;37657;53.182;5.638;2023-05-10T11:21:24;15.50;99.90
51567;DHT22;37657;53.182;5.638;2023-05-10T11:23:52;15.50;99.90
51567;DHT22;37657;53.182;5.638;2023-05-10T11:26:21;15.40;99.90
51567;DHT22;37657;53.182;5.638;2023-05-10T11:28:51;15.50;99.90
51567;DHT22;37657;53.182;5.638;2023-05-10T11:31:18;15.60;99.90
51567;DHT22;37657;53.182;5.638;2023-05-10T11:33:49;15.60;99.90
51567;DHT22;37657;53.182;5.638;2023-05-10T11:36:17;15.70;99.90
51567;DHT22;37657;53.182;5.638;2023-05-10T11:38:43;15.60;99.90
51567;DHT22;37657;53.182;5.638;2023-05-10T11:41:10;15.70;99.90
51567;DHT22;37657;53.182;5.638;2023-05-10T11:43:38;15.80;99.90
51567;DHT22;37657;53.182;5.638;2023-05-10T11:46:06;15.80;99.90
51567;DHT22;37657;53.182;5.638;2023-05-10T11:48:32;15.90;99.90
51567;DHT22;37657;53.182;5.638;2023-05-10T11:50:58;15.90;99.90
51567;DHT22;37657;53.182;5.638;2023-05-10T11:53:26;15.90;99.90
51567;DHT22;37657;53.182;5.638;2023-05-10T11:55:52;15.90;99.90
51567;DHT22;37657;53.182;5.638;2023-05-10T11:58:18;15.90;99.90
51567;DHT22;37657;53.182;5.638;2023-05-10T12:00:44;15.80;99.90
51567;DHT22;37657;53.182;5.638;2023-05-10T12:03:11;15.90;99.90
51567;DHT22;37657;53.182;5.638;2023-05-10T12:05:37;16.10;99.90
51567;DHT22;37657;53.182;5.638;2023-05-10T12:08:13;16.20;99.90
51567;DHT22;37657;53.182;5.638;2023-05-10T12:10:39;16.20;99.90
51567;DHT22;37657;53.182;5.638;2023-05-10T12:13:05;16.20;99.90
51567;DHT22;37657;53.182;5.638;2023-05-10T12:15:32;16.20;99.90
51567;DHT22;37657;53.182;5.638;2023-05-10T12:17:58;16.30;99.90
51567;DHT22;37657;53.182;5.638;2023-05-10T12:20:26;16.40;99.90
51567;DHT22;37657;53.182;5.638;2023-05-10T12:22:57;16.40;99.90
51567;DHT22;37657;53.182;5.638;2023-05-10T12:25:29;16.30;99.90
51567;DHT22;37657;53.182;5.638;2023-05-10T12:27:57;16.30;99.90
51567;DHT22;37657;53.182;5.638;2023-05-10T12:30:24;16.20;99.90
51567;DHT22;37657;53.182;5.638;2023-05-10T12:32:50;16.40;99.90
51567;DHT22;37657;53.182;5.638;2023-05-10T12:35:17;16.50;99.90
51567;DHT22;37657;53.182;5.638;2023-05-10T12:37:45;16.50;99.90
51567;DHT22;37657;53.182;5.638;2023-05-10T12:40:11;16.60;99.90
51567;DHT22;37657;53.182;5.638;2023-05-10T12:42:38;16.70;99.90
51567;DHT22;37657;53.182;5.638;2023-05-10T12:45:05;16.80;99.90
51567;DHT22;37657;53.182;5.638;2023-05-10T12:47:32;16.80;99.90
51567;DHT22;37657;53.182;5.638;2023-05-10T12:49:59;16.70;99.90
51567;DHT22;37657;53.182;5.638;2023-05-10T12:52:25;16.70;99.90
51567;DHT22;37657;53.182;5.638;2023-05-10T12:54:52;16.70;99.90
51567;DHT22;37657;53.182;5.638;2023-05-10T12:57:18;16.70;99.90
51567;DHT22;37657;53.182;5.638;2023-05-10T12:59:44;16.60;99.90
51567;DHT22;37657;53.182;5.638;2023-05-10T13:02:09;16.70;99.90
51567;DHT22;37657;53.182;5.638;2023-05-10T13:04:35;16.90;99.90
51567;DHT22;37657;53.182;5.638;2023-05-10T13:07:07;16.90;99.90
51567;DHT22;37657;53.182;5.638;2023-05-10T13:09:33;16.90;99.90
51567;DHT22;37657;53.182;5.638;2023-05-10T13:11:59;17.00;99.90
51567;DHT22;37657;53.182;5.638;2023-05-10T13:14:25;17.10;99.90
51567;DHT22;37657;53.182;5.638;2023-05-10T13:16:50;16.80;99.90
51567;DHT22;37657;53.182;5.638;2023-05-10T13:19:17;16.70;99.90
51567;DHT22;37657;53.182;5.638;2023-05-10T13:21:43;16.70;99.90
51567;DHT22;37657;53.182;5.638;2023-05-10T13:24:10;16.80;99.90
51567;DHT22;37657;53.182;5.638;2023-05-10T13:26:36;16.70;99.90
51567;DHT22;37657;53.182;5.638;2023-05-10T13:29:03;16.60;99.90
51567;DHT22;37657;53.182;5.638;2023-05-10T13:31:28;16.50;99.90
51567;DHT22;37657;53.182;5.638;2023-05-10T13:33:54;16.50;99.90
51567;DHT22;37657;53.182;5.638;2023-05-10T13:36:20;16.30;99.90
51567;DHT22;37657;53.182;5.638;2023-05-10T13:38:45;16.40;99.90
51567;DHT22;37657;53.182;5.638;2023-05-10T13:41:11;16.50;99.90
51567;DHT22;37657;53.182;5.638;2023-05-10T13:43:37;16.60;99.90
51567;DHT22;37657;53.182;5.638;2023-05-10T13:46:03;16.40;99.90
51567;DHT22;37657;53.182;5.638;2023-05-10T13:48:28;16.50;99.90
51567;DHT22;37657;53.182;5.638;2023-05-10T13:50:54;16.30;99.90
51567;DHT22;37657;53.182;5.638;2023-05-10T13:53:20;16.20;99.90
51567;DHT22;37657;53.182;5.638;2023-05-10T13:55:46;16.40;99.90
51567;DHT22;37657;53.182;5.638;2023-05-10T13:58:12;16.30;99.90
51567;DHT22;37657;53.182;5.638;2023-05-10T14:00:38;16.20;99.90
51567;DHT22;37657;53.182;5.638;2023-05-10T14:03:04;16.00;99.90
51567;DHT22;37657;53.182;5.638;2023-05-10T14:05:30;15.90;99.90
51567;DHT22;37657;53.182;5.638;2023-05-10T14:07:56;16.00;99.90
51567;DHT22;37657;53.182;5.638;2023-05-10T14:10:22;16.10;99.90
51567;DHT22;37657;53.182;5.638;2023-05-10T14:12:48;16.10;99.90
51567;DHT22;37657;53.182;5.638;2023-05-10T14:15:14;16.10;99.90
51567;DHT22;37657;53.182;5.638;2023-05-10T14:17:40;16.10;99.90
51567;DHT22;37657;53.182;5.638;2023-05-10T14:20:06;16.00;99.90
51567;DHT22;37657;53.182;5.638;2023-05-10T14:22:32;15.90;99.90
51567;DHT22;37657;53.182;5.638;2023-05-10T14:24:58;15.80;99.90
51567;DHT22;37657;53.182;5.638;2023-05-10T14:27:23;15.80;99.90
51567;DHT22;37657;53.182;5.638;2023-05-10T14:29:50;15.50;99.90
51567;DHT22;37657;53.182;5.638;2023-05-10T14:32:15;15.40;99.90
51567;DHT22;37657;53.182;5.638;2023-05-10T14:34:41;15.50;99.90
51567;DHT22;37657;53.182;5.638;2023-05-10T14:37:06;15.40;99.90
51567;DHT22;37657;53.182;5.638;2023-05-10T14:39:32;15.50;99.90
51567;DHT22;37657;53.182;5.638;2023-05-10T14:41:58;15.40;99.90
51567;DHT22;37657;53.182;5.638;2023-05-10T14:44:24;15.40;99.90
51567;DHT22;37657;53.182;5.638;2023-05-10T14:46:50;15.30;99.90
51567;DHT22;37657;53.182;5.638;2023-05-10T14:49:16;15.30;99.90
51567;DHT22;37657;53.182;5.638;2023-05-10T14:51:41;15.40;99.90
51567;DHT22;37657;53.182;5.638;2023-05-10T14:54:07;15.40;99.90
51567;DHT22;37657;53.182;5.638;2023-05-10T14:56:33;15.30;99.90
51567;DHT22;37657;53.182;5.638;2023-05-10T14:58:59;15.20;99.90
51567;DHT22;37657;53.182;5.638;2023-05-10T15:01:25;15.30;99.90
51567;DHT22;37657;53.182;5.638;2023-05-10T15:03:51;15.20;99.90
51567;DHT22;37657;53.182;5.638;2023-05-10T15:06:17;15.30;99.90
51567;DHT22;37657;53.182;5.638;2023-05-10T15:08:42;15.20;99.90
51567;DHT22;37657;53.182;5.638;2023-05-10T15:11:08;15.20;99.90
51567;DHT22;37657;53.182;5.638;2023-05-10T15:13:34;15.40;99.90
51567;DHT22;37657;53.182;5.638;2023-05-10T15:16:00;15.30;99.90
51567;DHT22;37657;53.182;5.638;2023-05-10T15:18:26;15.30;99.90
51567;DHT22;37657;53.182;5.638;2023-05-10T15:20:52;15.20;99.90
51567;DHT22;37657;53.182;5.638;2023-05-10T15:23:17;15.20;99.90
51567;DHT22;37657;53.182;5.638;2023-05-10T15:25:43;15.20;99.90
51567;DHT22;37657;53.182;5.638;2023-05-10T15:28:09;15.10;99.90
51567;DHT22;37657;53.182;5.638;2023-05-10T15:30:34;15.10;99.90
51567;DHT22;37657;53.182;5.638;2023-05-10T15:33:00;15.10;99.90
51567;DHT22;37657;53.182;5.638;2023-05-10T15:35:26;15.10;99.90
51567;DHT22;37657;53.182;5.638;2023-05-10T15:37:52;15.00;99.90
51567;DHT22;37657;53.182;5.638;2023-05-10T15:40:17;15.00;99.90
51567;DHT22;37657;53.182;5.638;2023-05-10T15:42:43;15.00;99.90
51567;DHT22;37657;53.182;5.638;2023-05-10T15:45:10;14.90;99.90
51567;DHT22;37657;53.182;5.638;2023-05-10T15:47:36;14.90;99.90
51567;DHT22;37657;53.182;5.638;2023-05-10T15:50:01;14.90;99.90
51567;DHT22;37657;53.182;5.638;2023-05-10T15:52:27;14.90;99.90
51567;DHT22;37657;53.182;5.638;2023-05-10T15:54:53;14.70;99.90
51567;DHT22;37657;53.182;5.638;2023-05-10T15:57:19;14.80;99.90
51567;DHT22;37657;53.182;5.638;2023-05-10T15:59:44;14.60;99.90
51567;DHT22;37657;53.182;5.638;2023-05-10T16:02:10;14.70;99.90
51567;DHT22;37657;53.182;5.638;2023-05-10T16:04:36;14.60;99.90
51567;DHT22;37657;53.182;5.638;2023-05-10T16:07:02;14.60;99.90
51567;DHT22;37657;53.182;5.638;2023-05-10T16:09:28;14.60;99.90
51567;DHT22;37657;53.182;5.638;2023-05-10T16:11:53;14.60;99.90
51567;DHT22;37657;53.182;5.638;2023-05-10T16:14:19;14.40;99.90
51567;DHT22;37657;53.182;5.638;2023-05-10T16:16:47;14.40;99.90
51567;DHT22;37657;53.182;5.638;2023-05-10T16:19:13;14.60;99.90
51567;DHT22;37657;53.182;5.638;2023-05-10T16:21:38;14.50;99.90
51567;DHT22;37657;53.182;5.638;2023-05-10T16:24:04;14.40;99.90
51567;DHT22;37657;53.182;5.638;2023-05-10T16:26:30;14.40;99.90
51567;DHT22;37657;53.182;5.638;2023-05-10T16:28:58;14.20;99.90
51567;DHT22;37657;53.182;5.638;2023-05-10T16:31:24;14.20;99.90
51567;DHT22;37657;53.182;5.638;2023-05-10T16:33:49;14.10;99.90
51567;DHT22;37657;53.182;5.638;2023-05-10T16:36:15;14.10;99.90
51567;DHT22;37657;53.182;5.638;2023-05-10T16:38:40;14.00;99.90
51567;DHT22;37657;53.182;5.638;2023-05-10T16:41:07;14.00;99.90
51567;DHT22;37657;53.182;5.638;2023-05-10T16:43:33;14.10;99.90
51567;DHT22;37657;53.182;5.638;2023-05-10T16:45:58;13.90;99.90
51567;DHT22;37657;53.182;5.638;2023-05-10T16:48:24;14.00;99.90
51567;DHT22;37657;53.182;5.638;2023-05-10T16:50:50;13.90;99.90
51567;DHT22;37657;53.182;5.638;2023-05-10T16:53:15;13.90;99.90
51567;DHT22;37657;53.182;5.638;2023-05-10T16:55:41;13.80;99.90
51567;DHT22;37657;53.182;5.638;2023-05-10T16:58:06;13.70;99.90
51567;DHT22;37657;53.182;5.638;2023-05-10T17:00:32;13.80;99.90
51567;DHT22;37657;53.182;5.638;2023-05-10T17:02:58;13.90;99.90
51567;DHT22;37657;53.182;5.638;2023-05-10T17:05:24;13.80;99.90